Time;durP1;ratioP1;P1;durP2;ratioP2;P2;SDS_P1;SDS_P2;PMS_P1;PMS_P2;Temp;Humidity;BMP_temperature;BMP_pressure;BME280_temperature;BME280_humidity;BME280_pressure;Samples;Min_cycle;Max_cycle;Signal;HPM_P1;HPM_P2
2021/11/17 02:28:49;;;;;;;3.70;2.81;;;;;;;5.38;93.41;99784.63;2040031;79;20752;-76
2021/11/17 02:32:08;;;;;;;4.59;2.34;;;;;;;5.37;93.41;99786.31;2019136;78;32082;-76
2021/11/17 02:35:20;;;;;;;4.20;2.69;;;;;;;5.34;93.36;99778.53;2039354;79;20304;-77
2021/11/17 02:38:38;;;;;;;2.80;2.21;;;;;;;5.35;93.45;99777.69;2040938;79;20316;-77
2021/11/17 02:42:06;;;;;;;2.95;2.33;;;;;;;5.34;93.37;99775.09;2036234;79;20304;-77
2021/11/17 02:45:54;;;;;;;4.63;3.08;;;;;;;5.35;93.47;99774.25;2034236;79;20342;-76
2021/11/17 02:49:15;;;;;;;3.66;2.53;;;;;;;5.31;93.29;99775.03;2026832;79;20432;-76
2021/11/17 02:52:42;;;;;;;5.31;2.40;;;;;;;5.31;93.52;99780.19;2028737;79;20323;-77
2021/11/17 02:56:05;;;;;;;6.15;2.39;;;;;;;5.32;93.51;99776.78;2040505;79;20408;-77
2021/11/17 02:59:32;;;;;;;3.19;2.20;;;;;;;5.28;93.42;99783.56;2039276;79;20554;-77
2021/11/17 03:02:49;;;;;;;2.92;2.40;;;;;;;5.28;93.48;99769.81;2038367;76;22669;-77
2021/11/17 03:06:18;;;;;;;3.39;2.56;;;;;;;5.26;93.44;99772.38;2041608;79;20316;-77
2021/11/17 03:09:32;;;;;;;3.88;2.67;;;;;;;5.26;93.45;99771.50;2040988;79;20356;-77
2021/11/17 03:13:03;;;;;;;3.29;2.35;;;;;;;5.25;93.44;99770.63;2040854;79;20804;-77
2021/11/17 03:16:30;;;;;;;4.43;2.40;;;;;;;5.29;93.42;99777.56;2040653;76;22125;-78
2021/11/17 03:19:43;;;;;;;3.47;2.45;;;;;;;5.28;93.45;99775.84;2040946;79;20348;-77
2021/11/17 03:22:55;;;;;;;3.51;2.95;;;;;;;5.28;93.34;99780.13;2041284;79;21071;-77
2021/11/17 03:26:29;;;;;;;5.24;2.72;;;;;;;5.25;93.26;99780.06;2040739;79;20354;-76
2021/11/17 03:30:16;;;;;;;3.56;2.34;;;;;;;5.24;93.42;99778.31;2041446;79;20385;-77
2021/11/17 03:33:33;;;;;;;2.66;2.33;;;;;;;5.20;93.34;99779.91;2038505;78;21136;-77
2021/11/17 03:36:51;;;;;;;3.20;1.91;;;;;;;5.20;93.37;99777.34;2041816;79;20334;-76
2021/11/17 03:40:09;;;;;;;2.72;2.22;;;;;;;5.23;93.28;99771.44;2041372;79;20378;-77
2021/11/17 03:43:22;;;;;;;3.83;2.04;;;;;;;5.22;93.12;99772.25;2041496;79;20256;-77
2021/11/17 03:46:49;;;;;;;3.31;2.60;;;;;;;5.16;92.86;99773.84;2040112;76;21252;-77
2021/11/17 03:50:01;;;;;;;3.85;2.67;;;;;;;5.16;93.08;99771.25;2041851;79;20346;-77
2021/11/17 03:53:25;;;;;;;4.10;2.50;;;;;;;5.19;93.18;99777.31;2042051;79;21147;-76
2021/11/17 03:57:05;;;;;;;3.21;2.53;;;;;;;5.20;93.09;99771.31;2042136;79;20352;-76
2021/11/17 04:00:36;;;;;;;3.42;2.50;;;;;;;5.18;92.85;99776.44;2035663;79;21033;-77
2021/11/17 04:03:45;;;;;;;5.07;2.33;;;;;;;5.15;93.01;99768.66;2042829;79;20981;-77
2021/11/17 04:07:03;;;;;;;2.89;2.17;;;;;;;5.16;93.18;99770.41;2040700;79;20332;-77
2021/11/17 04:10:28;;;;;;;3.87;2.54;;;;;;;5.16;93.18;99765.25;2041449;79;20149;-77
2021/11/17 04:13:59;;;;;;;5.50;2.79;;;;;;;5.13;93.15;99778.06;2039403;79;20312;-77
2021/11/17 04:17:32;;;;;;;4.50;2.42;;;;;;;5.13;93.28;99776.34;2039075;76;20945;-77
2021/11/17 04:20:44;;;;;;;2.97;2.44;;;;;;;5.15;93.23;99781.53;2040195;79;20309;-77
2021/11/17 04:24:11;;;;;;;3.06;2.22;;;;;;;5.10;93.20;99777.97;2040269;79;20320;-77
2021/11/17 04:27:40;;;;;;;2.85;2.22;;;;;;;5.10;93.44;99783.13;2040787;79;20370;-77
2021/11/17 04:30:57;;;;;;;3.47;2.50;;;;;;;5.08;93.37;99777.94;2037234;77;22061;-77
2021/11/17 04:34:26;;;;;;;3.24;2.36;;;;;;;5.09;93.54;99781.38;2034651;79;20329;-76
2021/11/17 04:37:41;;;;;;;2.81;1.97;;;;;;;5.13;93.57;99780.63;2034819;79;20309;-77
2021/11/17 04:41:01;;;;;;;3.75;2.39;;;;;;;5.09;93.33;99778.81;2035320;79;20261;-77
2021/11/17 04:44:12;;;;;;;2.65;2.15;;;;;;;5.08;93.56;99785.66;2035603;79;20733;-77
2021/11/17 04:47:43;;;;;;;4.10;2.59;;;;;;;5.08;93.68;99787.38;2032746;77;24030;-77
2021/11/17 04:51:00;;;;;;;2.95;2.53;;;;;;;5.08;93.69;99787.38;2035165;79;20390;-77
2021/11/17 04:54:33;;;;;;;2.50;2.30;;;;;;;5.09;93.58;99791.69;2030843;79;20331;-77
2021/11/17 04:57:54;;;;;;;3.21;2.36;;;;;;;5.08;93.37;99798.53;2035839;79;20384;-76
2021/11/17 05:01:21;;;;;;;3.90;2.55;;;;;;;5.09;93.43;99795.13;2035169;76;22057;-77
2021/11/17 05:04:48;;;;;;;3.76;2.24;;;;;;;5.11;93.44;99792.59;2040713;79;20409;-77
2021/11/17 05:08:09;;;;;;;6.36;1.94;;;;;;;5.11;93.48;99790.88;2040668;79;20316;-77
2021/11/17 05:11:25;;;;;;;3.80;2.21;;;;;;;5.12;93.34;99790.06;2040856;79;20352;-77
2021/11/17 05:14:47;;;;;;;4.66;2.44;;;;;;;5.11;93.26;99795.16;2040343;79;20380;-77
2021/11/17 05:18:08;;;;;;;4.11;2.50;;;;;;;5.08;93.28;99801.13;2038201;77;21132;-77
2021/11/17 05:21:47;;;;;;;5.75;2.51;;;;;;;5.09;93.50;99807.13;2040671;79;20401;-77
2021/11/17 05:24:57;;;;;;;4.79;2.42;;;;;;;5.08;93.54;99813.97;2038638;79;20320;-76
2021/11/17 05:28:22;;;;;;;6.13;2.72;;;;;;;5.09;93.43;99820.00;2036471;79;20189;-77
2021/11/17 05:31:52;;;;;;;3.88;2.15;;;;;;;5.09;93.46;99838.88;2038711;77;22119;-76
2021/11/17 05:35:07;;;;;;;3.60;2.56;;;;;;;5.10;93.41;99837.19;2040074;79;20340;-77
2021/11/17 05:38:25;;;;;;;2.91;2.16;;;;;;;5.10;93.46;99835.47;2040419;79;20304;-76
2021/11/17 05:41:42;;;;;;;2.71;1.99;;;;;;;5.10;93.56;99832.91;2039437;79;20313;-76
2021/11/17 05:45:07;;;;;;;2.94;2.06;;;;;;;5.13;93.60;99842.41;2039736;79;20355;-76
2021/11/17 05:48:52;;;;;;;2.80;2.28;;;;;;;5.11;93.58;99841.50;2039541;76;21545;-76
2021/11/17 05:52:37;;;;;;;3.74;2.34;;;;;;;5.12;93.67;99838.09;2040313;79;20752;-77
2021/11/17 05:55:57;;;;;;;2.41;1.64;;;;;;;5.12;93.59;99845.81;2040433;79;20340;-76
2021/11/17 05:59:47;;;;;;;2.84;1.59;;;;;;;5.12;93.61;99856.09;2040640;79;20337;-76
2021/11/17 06:03:20;;;;;;;3.08;1.48;;;;;;;5.11;93.57;99850.09;2031494;77;22707;-76
2021/11/17 06:06:23;;;;;;;2.40;1.59;;;;;;;5.10;93.45;99850.91;2035879;79;20300;-76
2021/11/17 06:09:26;;;;;;;1.85;1.38;;;;;;;5.10;93.37;99857.78;2039564;79;20377;-76
2021/11/17 06:12:28;;;;;;;1.99;1.71;;;;;;;5.09;93.58;99856.91;2040148;79;20322;-76
2021/11/17 06:15:31;;;;;;;2.81;1.89;;;;;;;5.10;93.52;99855.19;2040285;76;22082;-76
2021/11/17 06:18:36;;;;;;;2.09;1.77;;;;;;;5.11;93.27;99856.94;2039509;79;20330;-76
2021/11/17 06:21:41;;;;;;;1.50;1.35;;;;;;;5.08;93.28;99864.59;2039202;79;20308;-76
2021/11/17 06:24:46;;;;;;;2.59;1.52;;;;;;;5.09;93.28;99867.19;2039562;79;20376;-76
2021/11/17 06:27:53;;;;;;;2.34;1.74;;;;;;;5.07;93.14;99861.13;2039095;79;20354;-76
2021/11/17 06:30:58;;;;;;;1.69;1.50;;;;;;;5.05;93.13;99875.69;2038681;76;22322;-76
2021/11/17 06:34:31;;;;;;;2.51;1.74;;;;;;;5.04;93.46;99870.50;2039542;79;20316;-76
2021/11/17 06:37:34;;;;;;;2.55;1.65;;;;;;;5.06;93.57;99873.97;2039328;79;20632;-76
2021/11/17 06:40:41;;;;;;;1.81;1.58;;;;;;;5.11;93.59;99888.69;2040410;79;20416;-76
2021/11/17 06:43:44;;;;;;;1.99;1.46;;;;;;;5.10;93.34;99888.66;2040075;79;20301;-77
2021/11/17 06:46:46;;;;;;;1.69;1.38;;;;;;;5.10;93.41;99893.81;2037356;77;20829;-77
2021/11/17 06:49:52;;;;;;;1.91;1.73;;;;;;;5.10;93.43;99898.94;2039514;79;20358;-77
2021/11/17 06:52:55;;;;;;;1.94;1.50;;;;;;;5.11;93.43;99901.56;2040268;79;20320;-76
2021/11/17 06:55:58;;;;;;;2.38;1.86;;;;;;;5.13;93.40;99896.44;2038999;79;20358;-75
2021/11/17 06:59:01;;;;;;;2.24;1.59;;;;;;;5.11;93.33;99900.69;2038632;79;20325;-77
2021/11/17 07:02:05;;;;;;;2.80;1.64;;;;;;;5.09;93.35;99898.06;2038499;76;21844;-76
2021/11/17 07:05:09;;;;;;;1.74;1.64;;;;;;;5.11;93.36;99905.84;2041896;79;20307;-76
2021/11/17 07:08:12;;;;;;;2.29;1.63;;;;;;;5.09;93.32;99913.53;2040737;79;20384;-77
2021/11/17 07:11:14;;;;;;;2.08;1.84;;;;;;;5.08;93.43;99921.22;2041373;79;20312;-76
2021/11/17 07:14:21;;;;;;;1.99;1.69;;;;;;;5.12;93.53;99926.47;2040735;79;20388;-76
2021/11/17 07:17:24;;;;;;;2.35;1.90;;;;;;;5.16;93.42;99914.53;2039469;79;22440;-76
2021/11/17 07:20:27;;;;;;;2.47;1.99;;;;;;;5.14;93.31;99927.38;2036718;79;20328;-75
2021/11/17 07:23:30;;;;;;;2.79;2.10;;;;;;;5.14;93.21;99937.66;2041421;79;20329;-75
2021/11/17 07:26:33;;;;;;;1.84;1.70;;;;;;;5.14;93.20;99947.97;2040188;79;20860;-76
2021/11/17 07:29:35;;;;;;;3.01;1.77;;;;;;;5.15;93.38;99948.84;2041437;79;20958;-76
2021/11/17 07:32:38;;;;;;;2.85;2.00;;;;;;;5.19;93.43;99954.94;2039790;77;20332;-76
2021/11/17 07:35:45;;;;;;;2.84;1.67;;;;;;;5.23;93.39;99951.63;2040645;79;21066;-76
2021/11/17 07:38:48;;;;;;;2.56;2.15;;;;;;;5.24;93.40;99946.50;2041439;79;20376;-77
2021/11/17 07:41:52;;;;;;;3.03;1.81;;;;;;;5.23;93.25;99949.91;2040966;79;20317;-76
2021/11/17 07:44:56;;;;;;;2.40;1.83;;;;;;;5.26;93.33;99946.56;2039609;79;20691;-78
2021/11/17 07:47:59;;;;;;;2.56;2.00;;;;;;;5.29;93.27;99941.47;2037148;76;21508;-78
2021/11/17 07:51:02;;;;;;;2.70;1.99;;;;;;;5.31;93.29;99937.22;2039401;79;21011;-77
2021/11/17 07:54:06;;;;;;;2.90;1.83;;;;;;;5.33;93.27;99933.84;2039688;79;20378;-77
2021/11/17 07:57:09;;;;;;;2.42;1.96;;;;;;;5.35;93.20;99941.63;2040146;79;20332;-77
2021/11/17 08:00:15;;;;;;;2.81;2.08;;;;;;;5.36;93.09;99943.34;2039498;79;20320;-77
2021/11/17 08:03:20;;;;;;;2.49;1.90;;;;;;;5.42;93.19;99930.66;2040660;79;27833;-77
2021/11/17 08:06:25;;;;;;;4.79;2.22;;;;;;;5.47;93.07;99934.22;2041244;79;20325;-77
2021/11/17 08:09:29;;;;;;;2.47;1.90;;;;;;;5.50;92.98;99938.56;2040562;79;20312;-77
2021/11/17 08:12:32;;;;;;;3.46;1.98;;;;;;;5.51;92.78;99954.03;2040694;79;20304;-77
2021/11/17 08:15:36;;;;;;;5.05;2.86;;;;;;;5.52;92.78;99947.19;2038741;76;20935;-77
2021/11/17 08:18:39;;;;;;;4.66;2.59;;;;;;;5.50;92.59;99949.72;2040349;79;20334;-77
2021/11/17 08:21:41;;;;;;;3.29;2.84;;;;;;;5.51;92.44;99942.88;2039803;79;20316;-77
2021/11/17 08:24:44;;;;;;;3.49;2.78;;;;;;;5.51;92.41;99938.59;2040423;79;20338;-77
2021/11/17 08:27:47;;;;;;;3.95;2.76;;;;;;;5.53;92.22;99941.22;2039828;79;20340;-77
2021/11/17 08:30:50;;;;;;;4.36;2.80;;;;;;;5.54;92.18;99936.09;2040275;77;22643;-78
2021/11/17 08:33:59;;;;;;;4.19;2.96;;;;;;;5.60;92.19;99941.41;2042689;79;20344;-80
2021/11/17 08:37:05;;;;;;;4.54;3.47;;;;;;;5.63;92.03;99940.59;2039940;79;20316;-77
2021/11/17 08:40:40;;;;;;;4.72;2.97;;;;;;;5.59;91.90;99937.09;2041274;79;20324;-80
2021/11/17 08:43:43;;;;;;;3.88;2.96;;;;;;;5.66;91.98;99938.97;2042399;79;20442;-78
2021/11/17 08:46:45;;;;;;;4.91;3.16;;;;;;;5.76;91.95;99950.38;2043655;77;22730;-79
2021/11/17 08:49:48;;;;;;;5.32;3.60;;;;;;;5.79;91.69;99950.44;2040815;79;20389;-78
2021/11/17 08:52:56;;;;;;;5.61;3.45;;;;;;;5.81;91.44;99953.06;2039533;79;20782;-78
2021/11/17 08:56:04;;;;;;;4.57;3.55;;;;;;;5.87;91.33;99955.78;2039614;79;20701;-77
2021/11/17 08:59:07;;;;;;;5.75;3.38;;;;;;;5.90;91.15;99956.75;2039402;79;20309;-77
2021/11/17 09:02:10;;;;;;;4.71;3.51;;;;;;;5.90;90.78;99967.03;2034129;79;20865;-77
2021/11/17 09:05:20;;;;;;;5.50;3.61;;;;;;;5.91;90.72;99976.53;2038491;79;21487;-78
2021/11/17 09:08:30;;;;;;;4.91;3.81;;;;;;;5.96;90.92;99977.53;2040296;79;20851;-78
2021/11/17 09:11:35;;;;;;;5.19;3.71;;;;;;;6.00;90.42;99975.88;2039469;79;20328;-77
2021/11/17 09:14:38;;;;;;;5.21;3.78;;;;;;;6.02;90.43;99972.50;2037891;79;21322;-77
2021/11/17 09:17:44;;;;;;;5.44;4.14;;;;;;;6.05;90.34;99985.44;2025667;79;998533;-78
2021/11/17 09:20:47;;;;;;;5.47;3.67;;;;;;;6.12;90.17;99988.19;2038981;79;20690;-77
2021/11/17 09:23:54;;;;;;;6.66;4.15;;;;;;;6.20;90.15;100008.16;2041116;79;20360;-77
2021/11/17 09:26:57;;;;;;;5.91;3.95;;;;;;;6.27;89.88;100017.75;2025989;79;20308;-78
2021/11/17 09:30:02;;;;;;;6.06;4.00;;;;;;;6.32;89.51;100028.19;2027394;79;20651;-77
2021/11/17 09:33:08;;;;;;;4.01;3.26;;;;;;;6.37;89.32;100024.00;2030890;79;746221;-78
2021/11/17 09:36:15;;;;;;;9.29;3.78;;;;;;;6.37;88.82;100018.84;2038216;79;20387;-77
2021/11/17 09:39:18;;;;;;;5.80;3.92;;;;;;;6.42;89.00;100030.13;2025201;79;20423;-77
2021/11/17 09:42:31;;;;;;;5.55;3.91;;;;;;;6.46;89.14;100024.19;2041350;79;20337;-80
2021/11/17 09:45:48;;;;;;;5.94;3.75;;;;;;;6.50;89.03;100026.03;2030596;79;20845;-79
2021/11/17 09:49:14;;;;;;;5.04;3.26;;;;;;;6.56;88.79;100039.06;2018090;80;20329;-77
2021/11/17 09:52:25;;;;;;;5.91;3.35;;;;;;;6.61;88.55;100040.00;2015836;80;20363;-77
2021/11/17 09:55:37;;;;;;;5.84;3.80;;;;;;;6.61;88.08;100036.56;2011229;80;20340;-80
2021/11/17 09:59:23;;;;;;;7.45;3.81;;;;;;;6.64;87.87;100024.63;2016296;80;21425;-76
2021/11/17 10:02:48;;;;;;;4.28;3.67;;;;;;;6.63;87.50;100032.31;2014481;80;20329;-76
2021/11/17 10:13:29;;;;;;;7.55;3.71;;;;;;;6.64;86.47;100046.94;2015224;80;21149;-75
2021/11/17 10:16:32;;;;;;;6.65;3.85;;;;;;;6.69;86.79;100032.44;2014005;77;21011;-75
2021/11/17 10:19:36;;;;;;;4.34;3.78;;;;;;;6.77;86.86;100032.59;2015573;80;20451;-75
2021/11/17 10:22:42;;;;;;;5.46;3.59;;;;;;;6.83;86.66;100036.19;2017952;80;21094;-79
2021/11/17 10:25:57;;;;;;;6.22;3.56;;;;;;;6.94;86.90;100034.69;2016024;80;20329;-78
2021/11/17 10:29:04;;;;;;;4.99;3.72;;;;;;;7.00;86.73;100031.34;2016025;80;20861;-75
2021/11/17 10:32:26;;;;;;;4.97;3.81;;;;;;;7.07;86.38;100030.66;2015009;77;24761;-75
2021/11/17 10:35:33;;;;;;;4.50;3.36;;;;;;;7.13;86.04;100019.56;2016192;80;20367;-75
2021/11/17 10:38:45;;;;;;;8.34;3.58;;;;;;;7.19;85.42;100012.84;2015001;80;20907;-75
2021/11/17 10:42:05;;;;;;;5.81;4.01;;;;;;;7.14;84.60;100018.72;2016237;80;20432;-79
2021/11/17 10:45:11;;;;;;;5.32;3.55;;;;;;;7.15;84.21;100039.41;2019709;79;20368;-76
2021/11/17 10:48:33;;;;;;;5.50;3.64;;;;;;;7.09;84.17;100034.13;2037246;77;22723;-75
2021/11/17 10:51:48;;;;;;;4.96;3.14;;;;;;;7.14;84.36;100034.22;2037046;79;20853;-76
2021/11/17 10:54:53;;;;;;;4.07;3.16;;;;;;;7.08;84.05;100049.59;2037702;79;20418;-76
2021/11/17 10:57:56;;;;;;;7.24;3.72;;;;;;;7.08;84.21;100050.47;2037878;79;20390;-75
2021/11/17 11:01:13;;;;;;;3.75;3.05;;;;;;;7.06;84.55;100043.53;2035441;76;27834;-75
2021/11/17 11:04:28;;;;;;;5.22;3.55;;;;;;;7.10;84.89;100048.78;2038092;79;20843;-76
2021/11/17 11:07:36;;;;;;;4.45;3.41;;;;;;;7.09;84.71;100053.94;2037353;79;20317;-75
2021/11/17 11:10:41;;;;;;;4.08;3.68;;;;;;;7.07;84.58;100050.44;2037560;79;20336;-75
2021/11/17 11:13:54;;;;;;;5.04;3.74;;;;;;;7.01;84.25;100040.88;2041178;79;20193;-77
2021/11/17 11:17:19;;;;;;;3.76;3.44;;;;;;;7.00;84.28;100041.69;2031803;77;28007;-76
2021/11/17 11:20:24;;;;;;;3.42;3.11;;;;;;;7.05;84.60;100055.59;2037770;79;20319;-78
2021/11/17 11:23:34;;;;;;;4.36;3.89;;;;;;;7.06;84.40;100059.91;2040210;79;20396;-76
2021/11/17 11:26:59;;;;;;;4.69;3.60;;;;;;;7.02;83.86;100042.63;2039010;79;20378;-78
2021/11/17 11:30:01;;;;;;;4.21;3.72;;;;;;;7.03;84.22;100053.81;2038578;79;20325;-77
2021/11/17 11:33:35;;;;;;;4.88;3.84;;;;;;;7.00;84.18;100057.19;2037877;76;22927;-76
2021/11/17 11:36:46;;;;;;;3.81;3.42;;;;;;;7.01;84.58;100051.19;2040196;79;21309;-77
2021/11/17 11:40:24;;;;;;;5.80;4.18;;;;;;;7.02;84.57;100046.91;2042275;79;20393;-81
2021/11/17 11:44:23;;;;;;;4.93;4.06;;;;;;;7.04;84.45;100051.25;2043120;79;20312;-80
2021/11/17 11:47:52;;;;;;;4.32;3.42;;;;;;;7.07;84.33;100046.16;2018381;78;20873;-80
2021/11/17 11:55:18;;;;;;;4.75;3.86;;;;;;;7.13;84.27;100053.13;2040233;79;20265;-79
2021/11/17 11:58:27;;;;;;;6.46;4.35;;;;;;;7.12;84.18;100053.97;2031348;79;20309;-80
2021/11/17 12:01:30;;;;;;;12.38;8.04;;;;;;;7.10;84.12;100056.53;2038907;76;21416;-78
2021/11/17 12:04:32;;;;;;;5.91;4.75;;;;;;;7.11;84.20;100067.72;2040249;79;20197;-78
2021/11/17 12:07:58;;;;;;;9.04;6.15;;;;;;;7.12;84.23;100061.72;2039780;79;20368;-78
2021/11/17 12:11:01;;;;;;;9.77;7.47;;;;;;;7.16;84.41;100058.34;2039319;79;20515;-78
2021/11/17 12:14:08;;;;;;;7.68;5.99;;;;;;;7.23;84.42;100055.06;2039460;79;20316;-78
2021/11/17 12:17:20;;;;;;;6.11;4.99;;;;;;;7.26;84.51;100056.00;2038648;77;24947;-78
2021/11/17 12:20:35;;;;;;;5.72;4.39;;;;;;;7.31;84.02;100056.09;2040285;79;20447;-79
2021/11/17 12:23:42;;;;;;;4.68;3.94;;;;;;;7.34;83.73;100055.25;2039067;79;20762;-78
2021/11/17 12:26:48;;;;;;;6.18;4.46;;;;;;;7.38;83.67;100062.25;2036345;79;21370;-78
2021/11/17 12:30:09;;;;;;;6.70;4.75;;;;;;;7.42;83.95;100044.25;2039857;79;20332;-79
2021/11/17 12:33:33;;;;;;;6.00;4.25;;;;;;;7.50;84.04;100037.50;2039575;76;20416;-79
2021/11/17 12:36:57;;;;;;;4.59;3.79;;;;;;;7.59;83.79;100041.97;2041308;79;20426;-78
2021/11/17 12:40:16;;;;;;;4.93;4.26;;;;;;;7.64;83.16;100034.31;2040846;79;20418;-78
2021/11/17 12:43:35;;;;;;;4.84;3.99;;;;;;;7.70;83.16;100037.84;2040020;79;20396;-78
2021/11/17 12:46:48;;;;;;;6.11;4.93;;;;;;;7.71;83.05;100037.00;2037123;76;21058;-76
2021/11/17 12:49:58;;;;;;;10.55;7.15;;;;;;;7.74;82.36;100031.91;2038206;79;20422;-76
2021/11/17 12:53:00;;;;;;;;;;;;;;;7.75;81.97;100030.19;2038144;79;20917;-76
2021/11/17 12:56:16;;;;;;;7.11;5.21;;;;;;;7.79;82.41;100031.97;2038081;79;20083;-76
2021/11/17 12:59:36;;;;;;;8.96;5.29;;;;;;;7.73;81.59;100030.19;2037199;79;20309;-76
2021/11/17 13:03:08;;;;;;;5.53;4.34;;;;;;;7.70;81.49;100030.09;2036532;76;22132;-75
2021/11/17 13:06:22;;;;;;;7.26;4.79;;;;;;;7.76;81.88;100032.81;2036937;79;20441;-75
2021/11/17 13:09:30;;;;;;;5.49;4.43;;;;;;;7.82;82.06;100032.91;2038235;79;20338;-76
2021/11/17 13:12:35;;;;;;;5.65;4.11;;;;;;;7.87;82.01;100028.66;2037535;79;20334;-76
2021/11/17 13:15:41;;;;;;;6.21;4.82;;;;;;;7.89;81.61;100020.94;2036491;77;23874;-76
2021/11/17 13:18:44;;;;;;;7.30;4.76;;;;;;;7.97;81.78;100013.31;2038664;79;20312;-77
2021/11/17 13:21:52;;;;;;;5.75;4.50;;;;;;;8.01;81.97;100015.97;2037823;79;20356;-76
2021/11/17 13:25:29;;;;;;;5.39;4.34;;;;;;;8.03;81.67;100008.22;2038084;79;20325;-74
2021/11/17 13:28:49;;;;;;;5.68;4.28;;;;;;;8.04;81.72;100025.50;2036218;79;20189;-75
2021/11/17 13:31:55;;;;;;;5.95;4.40;;;;;;;8.09;81.81;100022.16;2035007;77;26900;-76
2021/11/17 13:35:19;;;;;;;5.19;4.26;;;;;;;8.06;81.08;100022.06;2032296;79;20320;-75
2021/11/17 13:38:24;;;;;;;7.05;4.94;;;;;;;8.06;80.81;100023.78;2037624;79;20456;-76
2021/11/17 13:41:27;;;;;;;6.03;4.57;;;;;;;8.05;80.83;100015.16;2037847;79;20312;-76
2021/11/17 13:44:29;;;;;;;5.89;4.51;;;;;;;8.08;80.91;100011.78;2035020;79;20381;-75
2021/11/17 13:47:53;;;;;;;5.54;4.47;;;;;;;8.08;80.91;100011.78;2035425;77;22623;-75
2021/11/17 13:50:56;;;;;;;4.97;4.47;;;;;;;8.11;80.79;100014.41;2037016;79;20337;-75
2021/11/17 13:53:59;;;;;;;6.72;4.93;;;;;;;8.03;80.39;100014.28;2037597;79;20300;-75
2021/11/17 13:57:06;;;;;;;5.82;4.65;;;;;;;8.06;80.97;100013.44;2039494;79;20982;-75
2021/11/17 14:00:11;;;;;;;8.02;6.60;;;;;;;8.04;80.75;100020.31;2038383;79;20902;-75
2021/11/17 14:03:14;;;;;;;7.89;4.56;;;;;;;8.04;80.97;100028.94;2039386;77;21801;-75
2021/11/17 14:06:20;;;;;;;5.56;4.45;;;;;;;8.04;80.92;100036.69;2038829;79;20990;-75
2021/11/17 14:09:26;;;;;;;6.31;4.44;;;;;;;7.99;81.14;100030.59;2039101;79;20837;-75
2021/11/17 14:12:28;;;;;;;5.80;4.30;;;;;;;7.97;80.95;100031.41;2042333;79;20400;-75
2021/11/17 14:15:33;;;;;;;6.11;5.11;;;;;;;7.97;81.11;100034.88;2038640;79;20330;-76
2021/11/17 14:18:35;;;;;;;6.10;4.89;;;;;;;7.91;80.98;100034.78;2039267;79;20372;-75
2021/11/17 14:21:38;;;;;;;7.06;5.54;;;;;;;7.88;81.46;100034.72;2039511;79;20695;-75
2021/11/17 14:24:41;;;;;;;6.06;4.95;;;;;;;7.85;81.83;100035.53;2039349;79;20411;-75
2021/11/17 14:27:48;;;;;;;6.16;4.71;;;;;;;7.81;81.95;100032.88;2035107;79;21013;-76
2021/11/17 14:30:56;;;;;;;5.95;5.06;;;;;;;7.80;82.10;100034.59;2037328;79;20400;-75
2021/11/17 14:34:01;;;;;;;5.99;5.21;;;;;;;7.82;82.20;100032.91;2038088;79;20308;-75
2021/11/17 14:37:05;;;;;;;6.84;4.91;;;;;;;7.80;82.27;100029.41;2034742;79;20300;-75
2021/11/17 14:40:10;;;;;;;6.69;5.28;;;;;;;7.79;82.13;100047.50;2038998;79;20906;-75
2021/11/17 14:43:13;;;;;;;7.06;4.69;;;;;;;7.75;82.13;100040.53;2039069;79;20328;-75
2021/11/17 14:46:15;;;;;;;6.84;5.13;;;;;;;7.74;82.52;100051.72;2038473;79;20316;-75
2021/11/17 14:49:18;;;;;;;5.13;4.51;;;;;;;7.72;82.77;100053.38;2038256;79;20338;-75
2021/11/17 14:52:22;;;;;;;7.11;5.22;;;;;;;7.71;83.01;100060.25;2038605;79;20326;-75
2021/11/17 14:55:27;;;;;;;5.86;4.61;;;;;;;7.69;82.99;100056.78;2039608;79;20337;-75
2021/11/17 14:58:30;;;;;;;5.57;4.76;;;;;;;7.68;82.88;100064.50;2038061;79;20297;-75
2021/11/17 15:01:35;;;;;;;6.56;4.75;;;;;;;7.67;82.94;100070.53;2036035;79;20350;-75
2021/11/17 15:04:38;;;;;;;6.60;4.35;;;;;;;7.65;83.02;100078.25;2038688;79;20349;-75
2021/11/17 15:07:41;;;;;;;5.01;4.15;;;;;;;7.64;83.21;100081.69;2037442;79;20685;-75
2021/11/17 15:10:45;;;;;;;6.03;4.21;;;;;;;7.63;83.38;100076.50;2037564;79;20890;-75
2021/11/17 15:13:49;;;;;;;6.49;4.65;;;;;;;7.59;83.22;100088.50;2038244;79;20737;-75
2021/11/17 15:16:53;;;;;;;5.09;4.39;;;;;;;7.57;83.54;100088.47;2037152;79;20309;-75
2021/11/17 15:19:56;;;;;;;4.46;3.89;;;;;;;7.57;83.54;100079.84;2038582;79;20317;-75
2021/11/17 15:23:00;;;;;;;6.25;4.25;;;;;;;7.56;83.73;100083.28;2039535;79;20317;-75
2021/11/17 15:26:05;;;;;;;4.91;4.46;;;;;;;7.55;83.98;100086.69;2039942;79;20309;-76
2021/11/17 15:29:07;;;;;;;5.04;4.00;;;;;;;7.54;84.01;100084.94;2039503;79;20379;-77
2021/11/17 15:32:10;;;;;;;8.06;4.53;;;;;;;7.51;84.02;100078.00;2038695;76;22531;-77
2021/11/17 15:35:14;;;;;;;5.82;4.28;;;;;;;7.51;84.14;100085.75;2039577;79;20367;-77
2021/11/17 15:38:17;;;;;;;6.06;4.01;;;;;;;7.50;84.25;100088.31;2040143;79;20635;-77
2021/11/17 15:41:24;;;;;;;4.96;3.92;;;;;;;7.47;84.46;100086.53;2040962;79;20316;-77
2021/11/17 15:44:26;;;;;;;5.84;4.32;;;;;;;7.45;84.52;100098.56;2039805;79;20308;-77
2021/11/17 15:47:29;;;;;;;6.70;4.81;;;;;;;7.43;84.57;100097.66;2038466;76;20602;-76
2021/11/17 15:50:35;;;;;;;5.85;4.29;;;;;;;7.42;84.49;100097.63;2041011;79;20317;-76
2021/11/17 15:53:38;;;;;;;4.75;4.05;;;;;;;7.39;84.43;100097.59;2040781;79;20324;-77
2021/11/17 15:56:41;;;;;;;5.61;4.44;;;;;;;7.38;84.65;100103.59;2040420;79;20346;-76
2021/11/17 15:59:44;;;;;;;4.90;4.30;;;;;;;7.40;84.84;100105.34;2039326;79;20361;-76
2021/11/17 16:02:53;;;;;;;5.84;4.02;;;;;;;7.41;84.82;100108.81;2038200;76;23607;-77
2021/11/17 16:05:58;;;;;;;6.25;4.39;;;;;;;7.41;84.86;100108.81;2039519;79;20173;-76
2021/11/17 16:09:01;;;;;;;6.36;4.59;;;;;;;7.40;84.96;100123.44;2040779;79;20365;-76
2021/11/17 16:12:04;;;;;;;5.60;4.41;;;;;;;7.40;85.04;100125.16;2039778;79;20328;-79
2021/11/17 16:15:09;;;;;;;5.19;4.43;;;;;;;7.39;85.03;100132.03;2043171;79;20655;-80
2021/11/17 16:18:19;;;;;;;4.61;4.16;;;;;;;7.39;85.07;100134.63;2040940;79;20308;-77
2021/11/17 16:21:23;;;;;;;7.16;5.64;;;;;;;7.38;85.14;100137.19;2041374;79;20312;-77
2021/11/17 16:27:49;;;;;;;5.82;5.00;;;;;;;7.37;85.51;100144.06;2041065;79;20308;-75
2021/11/17 16:30:54;;;;;;;6.35;4.88;;;;;;;7.35;85.74;100137.97;2035039;79;20297;-76
2021/11/17 16:33:58;;;;;;;8.75;5.26;;;;;;;7.33;86.02;100143.94;2039346;79;21181;-77
2021/11/17 16:37:01;;;;;;;9.82;5.68;;;;;;;7.31;86.27;100150.78;2038714;79;21209;-77
2021/11/17 16:40:08;;;;;;;6.96;5.39;;;;;;;7.30;86.26;100147.34;2041191;79;20651;-77
2021/11/17 16:43:12;;;;;;;8.15;5.39;;;;;;;7.28;86.49;100151.59;2044395;79;20365;-79
2021/11/17 16:46:17;;;;;;;7.53;5.24;;;;;;;7.28;86.74;100154.19;2042530;79;20313;-79
2021/11/17 16:49:42;;;;;;;9.00;5.90;;;;;;;7.28;87.00;100151.59;2040475;79;20366;-78
2021/11/17 16:52:47;;;;;;;11.49;6.51;;;;;;;7.28;87.14;100144.72;2042141;79;20304;-79
2021/11/17 16:56:23;;;;;;;8.49;5.63;;;;;;;7.25;87.33;100143.78;2041251;79;20338;-79
2021/11/17 16:59:26;;;;;;;10.20;5.75;;;;;;;7.21;87.53;100150.59;2042872;79;20330;-78
2021/11/17 17:02:29;;;;;;;7.91;6.00;;;;;;;7.21;87.80;100154.91;2037481;77;22745;-78
2021/11/17 17:05:32;;;;;;;8.41;5.70;;;;;;;7.21;88.03;100154.91;2038959;79;20301;-78
2021/11/17 17:08:36;;;;;;;8.06;5.81;;;;;;;7.20;88.13;100151.44;2039369;79;20877;-78
2021/11/17 17:11:39;;;;;;;6.16;5.09;;;;;;;7.18;88.26;100160.88;2041290;79;20385;-78
2021/11/17 17:14:42;;;;;;;8.82;5.61;;;;;;;7.19;88.33;100170.38;2039572;79;20376;-78
2021/11/17 17:17:46;;;;;;;8.66;6.29;;;;;;;7.18;88.36;100171.22;2038718;79;20336;-78
2021/11/17 17:20:56;;;;;;;8.74;5.94;;;;;;;7.16;88.56;100169.41;2040270;79;20436;-78
2021/11/17 17:24:02;;;;;;;8.50;6.16;;;;;;;7.18;88.71;100172.88;2040404;79;20316;-78
2021/11/17 17:27:06;;;;;;;8.60;6.24;;;;;;;7.18;88.72;100165.16;2042558;79;20350;-78
2021/11/17 17:30:13;;;;;;;9.15;6.26;;;;;;;7.18;88.80;100166.03;2091031;70;21266;-78
2021/11/17 17:33:19;;;;;;;9.05;6.20;;;;;;;7.18;88.83;100168.63;2018280;80;20429;-78
2021/11/17 17:36:21;;;;;;;8.88;6.50;;;;;;;7.20;88.92;100174.69;2019571;80;20390;-78
2021/11/17 17:39:24;;;;;;;8.73;5.70;;;;;;;7.22;88.88;100172.16;2018870;80;20403;-78
2021/11/17 17:42:27;;;;;;;7.53;5.90;;;;;;;7.22;88.99;100167.84;2019120;80;20370;-78
2021/11/17 17:45:30;;;;;;;8.81;6.31;;;;;;;7.24;89.00;100168.75;2019486;77;21777;-78
2021/11/17 17:48:34;;;;;;;7.06;6.06;;;;;;;7.25;89.14;100169.63;2024023;80;20440;-78